This is the latest recevied weather packets stored in our database for station/object SV1JCZ-13. If no packets are shown the sender has not sent any weather packets the latest 10 day(s).
| Time | Temp. | Humidity | Pressure | Rain* | Wind** | Luminosity | Snow |
|---|---|---|---|---|---|---|---|
| 1777749309 | 6.67° C | 76% | 0 hPa | 0 mm | - | - | - |
| 1777748950 | 6.67° C | 76% | 0 hPa | 0 mm | - | - | - |
| 1777748590 | 6.67° C | 76% | 0 hPa | 0 mm | - | - | - |
| 1777747870 | 7.22° C | 75% | 0 hPa | 0 mm | - | - | - |
| 1777747510 | 7.22° C | 74% | 0 hPa | 0 mm | - | - | - |
| 1777747150 | 7.22° C | 74% | 0 hPa | 0 mm | - | - | - |
| 1777747031 | 7.22° C | 74% | 0 hPa | 0 mm | - | - | - |
| 1777746790 | 7.22° C | 74% | 0 hPa | 0 mm | - | - | - |
| 1777746070 | 7.78° C | 73% | 0 hPa | 0 mm | - | - | - |
| 1777745710 | 7.78° C | 73% | 0 hPa | 0 mm | - | - | - |
| 1777745350 | 7.78° C | 72% | 0 hPa | 0 mm | - | - | - |
| 1777744630 | 8.33° C | 72% | 0 hPa | 0 mm | - | - | - |
| 1777743910 | 8.33° C | 71% | 0 hPa | 0 mm | - | - | - |
| 1777743550 | 8.89° C | 70% | 0 hPa | 0 mm | - | - | - |
| 1777742830 | 9.44° C | 68% | 0 hPa | 0 mm | - | - | - |
| 1777742470 | 9.44° C | 67% | 0 hPa | 0 mm | - | - | - |
| 1777742110 | 9.44° C | 66% | 0 hPa | 0 mm | - | - | - |
| 1777741750 | 10° C | 65% | 0 hPa | 0 mm | - | - | - |
| 1777741031 | 11.11° C | 58% | 0 hPa | 0 mm | - | - | - |
| 1777740670 | 11.11° C | 56% | 0 hPa | 0 mm | - | - | - |
| 1777739950 | 12.78° C | 51% | 0 hPa | 0 mm | - | - | - |
| 1777739831 | 12.78° C | 50% | 0 hPa | 0 mm | - | - | - |
| 1777739230 | 14.44° C | 46% | 0 hPa | 0 mm | - | - | - |
| 1777738631 | 15° C | 45% | 0 hPa | 0 mm | - | - | - |
| 1777738150 | 14.44° C | 49% | 0 hPa | 0 mm | - | - | - |
* Rain latest hour (hover to see other rain measurements)
** Current wind speed in m/s (hover to see current wind gust speed)